Terminal Aerodrome Forecast
Issued by NWS

Home | Current Version | Previous Version | Text Only | Print | Product List | Glossary On
Versions: 1 2 3 4 5 6 7 8 9 10 11 12 13 14 15 16 17 18 19 20 21 22 23 24
000
FTUS42 KGSP 011138
TAFHKY
TAF
KHKY 011138Z 0112/0212 17007KT 5SM -SHRA BR SCT003 OVC008
      TEMPO 0112/0114 3SM BR BKN003 OVC008
     FM011500 19008KT P6SM OVC008
     FM011700 20009KT P6SM VCTS BKN025CB
      TEMPO 0117/0121 3SM TSRA BR BKN020CB
     FM012100 20009KT P6SM BKN035
     FM020200 22005KT P6SM BKN050=

USA.gov is the U.S. government's official web portal to all federal, state and local government web resources and services.